sensor_id;sensor_type;location;lat;lon;timestamp;pressure;altitude;pressure_sealevel;temperature;humidity
71666;BME280;59503;53.486;10.196;2023-09-12T00:01:38;101219.09;;;18.93;100.00
71666;BME280;59503;53.486;10.196;2023-09-12T00:04:03;101239.88;;;19.01;100.00
71666;BME280;59503;53.486;10.196;2023-09-12T00:06:29;101241.91;;;18.97;100.00
71666;BME280;59503;53.486;10.196;2023-09-12T00:08:54;101238.75;;;18.98;100.00
71666;BME280;59503;53.486;10.196;2023-09-12T00:11:19;101244.28;;;18.95;100.00
71666;BME280;59503;53.486;10.196;2023-09-12T00:13:45;101245.81;;;18.99;100.00
71666;BME280;59503;53.486;10.196;2023-09-12T00:16:10;101246.19;;;19.01;100.00
71666;BME280;59503;53.486;10.196;2023-09-12T00:18:39;101249.34;;;19.00;100.00
71666;BME280;59503;53.486;10.196;2023-09-12T00:21:05;101256.81;;;18.99;100.00
71666;BME280;59503;53.486;10.196;2023-09-12T00:23:30;101247.75;;;18.99;100.00
71666;BME280;59503;53.486;10.196;2023-09-12T00:25:57;101253.25;;;19.02;100.00
71666;BME280;59503;53.486;10.196;2023-09-12T00:28:22;101263.50;;;19.02;100.00
71666;BME280;59503;53.486;10.196;2023-09-12T00:30:48;101259.16;;;19.01;100.00
71666;BME280;59503;53.486;10.196;2023-09-12T00:33:13;101261.19;;;18.97;100.00
71666;BME280;59503;53.486;10.196;2023-09-12T00:35:39;101259.59;;;18.96;100.00
71666;BME280;59503;53.486;10.196;2023-09-12T00:38:04;101263.13;;;19.00;100.00
71666;BME280;59503;53.486;10.196;2023-09-12T00:40:32;101246.59;;;19.00;100.00
71666;BME280;59503;53.486;10.196;2023-09-12T00:42:58;101250.50;;;19.02;100.00
71666;BME280;59503;53.486;10.196;2023-09-12T00:45:24;101240.25;;;19.03;100.00
71666;BME280;59503;53.486;10.196;2023-09-12T00:47:50;101227.34;;;18.96;100.00
71666;BME280;59503;53.486;10.196;2023-09-12T00:50:17;101247.31;;;19.07;100.00
71666;BME280;59503;53.486;10.196;2023-09-12T00:52:45;101257.94;;;19.05;100.00
71666;BME280;59503;53.486;10.196;2023-09-12T00:55:11;101255.97;;;19.06;100.00
71666;BME280;59503;53.486;10.196;2023-09-12T00:57:36;101244.97;;;19.02;100.00
71666;BME280;59503;53.486;10.196;2023-09-12T01:00:04;101256.00;;;19.02;100.00
71666;BME280;59503;53.486;10.196;2023-09-12T01:02:41;101259.94;;;19.05;100.00
71666;BME280;59503;53.486;10.196;2023-09-12T01:05:08;101256.78;;;19.03;100.00
71666;BME280;59503;53.486;10.196;2023-09-12T01:07:35;101255.59;;;19.04;100.00
71666;BME280;59503;53.486;10.196;2023-09-12T01:10:01;101256.78;;;19.03;100.00
71666;BME280;59503;53.486;10.196;2023-09-12T01:12:29;101254.44;;;19.01;100.00
71666;BME280;59503;53.486;10.196;2023-09-12T01:14:54;101244.69;;;18.93;100.00
71666;BME280;59503;53.486;10.196;2023-09-12T01:17:20;101241.16;;;18.89;100.00
71666;BME280;59503;53.486;10.196;2023-09-12T01:19:45;101241.13;;;18.93;100.00
71666;BME280;59503;53.486;10.196;2023-09-12T01:28:05;101228.66;;;18.78;100.00
71666;BME280;59503;53.486;10.196;2023-09-12T01:30:34;101221.56;;;18.77;100.00
71666;BME280;59503;53.486;10.196;2023-09-12T01:33:01;101214.50;;;18.76;100.00
71666;BME280;59503;53.486;10.196;2023-09-12T01:35:27;101216.88;;;18.74;100.00
71666;BME280;59503;53.486;10.196;2023-09-12T01:37:53;101212.56;;;18.73;100.00
71666;BME280;59503;53.486;10.196;2023-09-12T01:40:32;101205.47;;;18.72;100.00
71666;BME280;59503;53.486;10.196;2023-09-12T01:43:00;101201.16;;;18.71;100.00
71666;BME280;59503;53.486;10.196;2023-09-12T01:45:26;101188.59;;;18.70;100.00
71666;BME280;59503;53.486;10.196;2023-09-12T01:47:53;101172.06;;;18.70;100.00
71666;BME280;59503;53.486;10.196;2023-09-12T01:50:19;101164.16;;;18.72;100.00
71666;BME280;59503;53.486;10.196;2023-09-12T01:52:46;101153.94;;;18.72;100.00
71666;BME280;59503;53.486;10.196;2023-09-12T01:55:12;101148.81;;;18.74;100.00
71666;BME280;59503;53.486;10.196;2023-09-12T01:57:38;101148.38;;;18.79;100.00
71666;BME280;59503;53.486;10.196;2023-09-12T02:00:04;101156.59;;;18.83;100.00
71666;BME280;59503;53.486;10.196;2023-09-12T02:02:30;101156.16;;;18.88;100.00
71666;BME280;59503;53.486;10.196;2023-09-12T02:05:07;101163.22;;;18.89;100.00
71666;BME280;59503;53.486;10.196;2023-09-12T02:07:37;101175.00;;;18.93;100.00
71666;BME280;59503;53.486;10.196;2023-09-12T02:10:03;101179.31;;;18.94;100.00
71666;BME280;59503;53.486;10.196;2023-09-12T02:12:31;101175.38;;;18.95;100.00
71666;BME280;59503;53.486;10.196;2023-09-12T02:14:56;101178.16;;;18.95;100.00
71666;BME280;59503;53.486;10.196;2023-09-12T02:17:21;101200.19;;;18.95;100.00
71666;BME280;59503;53.486;10.196;2023-09-12T02:19:48;101212.81;;;18.89;100.00
71666;BME280;59503;53.486;10.196;2023-09-12T02:22:13;101221.94;;;18.82;100.00
71666;BME280;59503;53.486;10.196;2023-09-12T02:24:38;101228.66;;;18.78;100.00
71666;BME280;59503;53.486;10.196;2023-09-12T02:27:04;101248.34;;;18.76;100.00
71666;BME280;59503;53.486;10.196;2023-09-12T02:29:29;101254.69;;;18.73;100.00
71666;BME280;59503;53.486;10.196;2023-09-12T02:31:56;101271.22;;;18.70;100.00
71666;BME280;59503;53.486;10.196;2023-09-12T02:34:21;101279.13;;;18.64;100.00
71666;BME280;59503;53.486;10.196;2023-09-12T02:36:47;101279.13;;;18.64;100.00
71666;BME280;59503;53.486;10.196;2023-09-12T02:39:12;101271.25;;;18.63;100.00
71666;BME280;59503;53.486;10.196;2023-09-12T02:41:38;101275.59;;;18.60;100.00
71666;BME280;59503;53.486;10.196;2023-09-12T02:44:03;101285.84;;;18.60;100.00
71666;BME280;59503;53.486;10.196;2023-09-12T02:46:29;101286.28;;;18.54;100.00
71666;BME280;59503;53.486;10.196;2023-09-12T02:48:54;101291.78;;;18.54;100.00
71666;BME280;59503;53.486;10.196;2023-09-12T02:51:19;101303.56;;;18.51;100.00
71666;BME280;59503;53.486;10.196;2023-09-12T02:53:45;101302.41;;;18.52;100.00
71666;BME280;59503;53.486;10.196;2023-09-12T02:56:10;101305.16;;;18.49;100.00
71666;BME280;59503;53.486;10.196;2023-09-12T02:58:36;101279.59;;;18.48;100.00
71666;BME280;59503;53.486;10.196;2023-09-12T03:01:01;101270.59;;;18.44;100.00
71666;BME280;59503;53.486;10.196;2023-09-12T03:03:28;101277.66;;;18.45;100.00
71666;BME280;59503;53.486;10.196;2023-09-12T03:05:58;101278.47;;;18.42;100.00
71666;BME280;59503;53.486;10.196;2023-09-12T03:08:24;101280.03;;;18.43;100.00
71666;BME280;59503;53.486;10.196;2023-09-12T03:10:56;101278.06;;;18.40;100.00
71666;BME280;59503;53.486;10.196;2023-09-12T03:13:24;101293.41;;;18.41;100.00
71666;BME280;59503;53.486;10.196;2023-09-12T03:15:50;101282.78;;;18.36;100.00
71666;BME280;59503;53.486;10.196;2023-09-12T03:18:16;101275.72;;;18.35;100.00
71666;BME280;59503;53.486;10.196;2023-09-12T03:20:41;101285.53;;;18.36;100.00
71666;BME280;59503;53.486;10.196;2023-09-12T03:23:07;101289.06;;;18.37;100.00
71666;BME280;59503;53.486;10.196;2023-09-12T03:25:36;101290.28;;;18.36;100.00
71666;BME280;59503;53.486;10.196;2023-09-12T03:28:04;101298.94;;;18.34;100.00
71666;BME280;59503;53.486;10.196;2023-09-12T03:30:30;101310.31;;;18.36;100.00
71666;BME280;59503;53.486;10.196;2023-09-12T03:32:56;101306.81;;;18.32;100.00
71666;BME280;59503;53.486;10.196;2023-09-12T03:35:21;101307.19;;;18.34;100.00
71666;BME280;59503;53.486;10.196;2023-09-12T03:37:47;101299.69;;;18.38;100.00
71666;BME280;59503;53.486;10.196;2023-09-12T03:40:12;101290.63;;;18.38;100.00
71666;BME280;59503;53.486;10.196;2023-09-12T03:42:37;101294.97;;;18.39;100.00
71666;BME280;59503;53.486;10.196;2023-09-12T03:45:04;101312.31;;;18.39;100.00
71666;BME280;59503;53.486;10.196;2023-09-12T03:47:29;101303.22;;;18.39;100.00
71666;BME280;59503;53.486;10.196;2023-09-12T03:49:54;101307.94;;;18.38;100.00
71666;BME280;59503;53.486;10.196;2023-09-12T03:52:20;101302.06;;;18.40;100.00
71666;BME280;59503;53.486;10.196;2023-09-12T03:54:45;101306.00;;;18.42;100.00
71666;BME280;59503;53.486;10.196;2023-09-12T03:57:11;101301.66;;;18.41;100.00
71666;BME280;59503;53.486;10.196;2023-09-12T03:59:36;101289.09;;;18.40;100.00
71666;BME280;59503;53.486;10.196;2023-09-12T04:02:02;101287.53;;;18.43;100.00
71666;BME280;59503;53.486;10.196;2023-09-12T04:04:28;101292.22;;;18.42;100.00
71666;BME280;59503;53.486;10.196;2023-09-12T04:06:53;101289.06;;;18.44;100.00
71666;BME280;59503;53.486;10.196;2023-09-12T04:09:20;101289.47;;;18.42;100.00
71666;BME280;59503;53.486;10.196;2023-09-12T04:11:46;101267.84;;;18.37;100.00
71666;BME280;59503;53.486;10.196;2023-09-12T04:14:15;101273.38;;;18.41;100.00
71666;BME280;59503;53.486;10.196;2023-09-12T04:16:40;101248.59;;;18.41;100.00
71666;BME280;59503;53.486;10.196;2023-09-12T04:19:06;101256.44;;;18.39;100.00
71666;BME280;59503;53.486;10.196;2023-09-12T04:21:31;101243.09;;;18.34;100.00
71666;BME280;59503;53.486;10.196;2023-09-12T04:23:56;101248.97;;;18.36;100.00
71666;BME280;59503;53.486;10.196;2023-09-12T04:26:22;101247.00;;;18.36;100.00
71666;BME280;59503;53.486;10.196;2023-09-12T04:28:47;101233.63;;;18.35;100.00
71666;BME280;59503;53.486;10.196;2023-09-12T04:31:13;101221.47;;;18.32;100.00
71666;BME280;59503;53.486;10.196;2023-09-12T04:33:38;101225.38;;;18.31;100.00
71666;BME280;59503;53.486;10.196;2023-09-12T04:36:04;101227.41;;;18.24;100.00
71666;BME280;59503;53.486;10.196;2023-09-12T04:38:29;101248.63;;;18.27;100.00
71666;BME280;59503;53.486;10.196;2023-09-12T04:41:00;101248.63;;;18.23;100.00
71666;BME280;59503;53.486;10.196;2023-09-12T04:43:33;101238.03;;;18.22;100.00
71666;BME280;59503;53.486;10.196;2023-09-12T04:45:59;101246.31;;;18.18;100.00
71666;BME280;59503;53.486;10.196;2023-09-12T04:48:24;101258.50;;;18.17;100.00
71666;BME280;59503;53.486;10.196;2023-09-12T04:50:50;101269.91;;;18.16;100.00
71666;BME280;59503;53.486;10.196;2023-09-12T04:53:15;101264.84;;;18.11;100.00
71666;BME280;59503;53.486;10.196;2023-09-12T04:55:41;101265.25;;;18.09;100.00
71666;BME280;59503;53.486;10.196;2023-09-12T04:58:06;101267.59;;;18.07;100.00
71666;BME280;59503;53.486;10.196;2023-09-12T05:00:33;101277.03;;;18.06;100.00
71666;BME280;59503;53.486;10.196;2023-09-12T05:02:58;101288.03;;;18.06;100.00
71666;BME280;59503;53.486;10.196;2023-09-12T05:05:24;101291.97;;;18.05;100.00
71666;BME280;59503;53.486;10.196;2023-09-12T05:07:50;101293.53;;;18.06;100.00
71666;BME280;59503;53.486;10.196;2023-09-12T05:10:16;101298.66;;;18.04;100.00
71666;BME280;59503;53.486;10.196;2023-09-12T05:12:42;101300.63;;;18.07;100.00
71666;BME280;59503;53.486;10.196;2023-09-12T05:15:08;101301.38;;;18.08;100.00
71666;BME280;59503;53.486;10.196;2023-09-12T05:17:33;101313.19;;;18.08;100.00
71666;BME280;59503;53.486;10.196;2023-09-12T05:19:59;101315.94;;;18.08;100.00
71666;BME280;59503;53.486;10.196;2023-09-12T05:22:24;101331.66;;;18.08;100.00
71666;BME280;59503;53.486;10.196;2023-09-12T05:24:50;101340.69;;;18.08;100.00
71666;BME280;59503;53.486;10.196;2023-09-12T05:27:15;101343.06;;;18.06;100.00
71666;BME280;59503;53.486;10.196;2023-09-12T05:29:40;101350.16;;;18.04;100.00
71666;BME280;59503;53.486;10.196;2023-09-12T05:32:06;101351.72;;;18.01;100.00
71666;BME280;59503;53.486;10.196;2023-09-12T05:34:32;101346.59;;;18.07;100.00
71666;BME280;59503;53.486;10.196;2023-09-12T05:36:58;101334.44;;;18.04;100.00
71666;BME280;59503;53.486;10.196;2023-09-12T05:39:23;101316.72;;;18.05;100.00
71666;BME280;59503;53.486;10.196;2023-09-12T05:41:49;101310.03;;;18.03;100.00
71666;BME280;59503;53.486;10.196;2023-09-12T05:44:14;101299.03;;;18.06;100.00
71666;BME280;59503;53.486;10.196;2023-09-12T05:46:46;101298.66;;;18.04;100.00
71666;BME280;59503;53.486;10.196;2023-09-12T05:49:13;101295.88;;;18.08;100.00
71666;BME280;59503;53.486;10.196;2023-09-12T05:51:38;101288.03;;;18.06;100.00
71666;BME280;59503;53.486;10.196;2023-09-12T05:54:04;101284.88;;;18.08;100.00
71666;BME280;59503;53.486;10.196;2023-09-12T05:56:30;101286.44;;;18.12;100.00
71666;BME280;59503;53.486;10.196;2023-09-12T05:58:55;101299.00;;;18.13;100.00
71666;BME280;59503;53.486;10.196;2023-09-12T06:01:21;101315.91;;;18.15;100.00
71666;BME280;59503;53.486;10.196;2023-09-12T06:03:46;101325.38;;;18.14;100.00
71666;BME280;59503;53.486;10.196;2023-09-12T06:06:12;101329.66;;;18.15;100.00
71666;BME280;59503;53.486;10.196;2023-09-12T06:08:37;101333.97;;;18.20;100.00
71666;BME280;59503;53.486;10.196;2023-09-12T06:11:03;101317.09;;;18.14;100.00
71666;BME280;59503;53.486;10.196;2023-09-12T06:13:29;101295.44;;;18.20;100.00
71666;BME280;59503;53.486;10.196;2023-09-12T06:15:54;101287.16;;;18.23;100.00
71666;BME280;59503;53.486;10.196;2023-09-12T06:18:20;101303.69;;;18.23;100.00
71666;BME280;59503;53.486;10.196;2023-09-12T06:20:45;101323.72;;;18.27;100.00
71666;BME280;59503;53.486;10.196;2023-09-12T06:23:11;101321.75;;;18.28;100.00
71666;BME280;59503;53.486;10.196;2023-09-12T06:25:37;101322.13;;;18.33;100.00
71666;BME280;59503;53.486;10.196;2023-09-12T06:28:03;101324.06;;;18.36;100.00
71666;BME280;59503;53.486;10.196;2023-09-12T06:30:28;101323.31;;;18.39;100.00
71666;BME280;59503;53.486;10.196;2023-09-12T06:32:54;101328.78;;;18.46;100.00
71666;BME280;59503;53.486;10.196;2023-09-12T06:35:19;101342.13;;;18.51;100.00
71666;BME280;59503;53.486;10.196;2023-09-12T06:37:45;101340.13;;;18.59;100.00
71666;BME280;59503;53.486;10.196;2023-09-12T06:40:12;101345.19;;;18.68;100.00
71666;BME280;59503;53.486;10.196;2023-09-12T06:42:37;101350.69;;;18.75;100.00
71666;BME280;59503;53.486;10.196;2023-09-12T06:45:03;101358.50;;;18.80;100.00
71666;BME280;59503;53.486;10.196;2023-09-12T06:47:28;101366.75;;;18.83;100.00
71666;BME280;59503;53.486;10.196;2023-09-12T06:49:54;101381.25;;;18.91;100.00
71666;BME280;59503;53.486;10.196;2023-09-12T06:52:19;101365.53;;;18.91;100.00
71666;BME280;59503;53.486;10.196;2023-09-12T06:54:45;101361.16;;;18.94;100.00
71666;BME280;59503;53.486;10.196;2023-09-12T06:57:10;101360.75;;;18.95;100.00
71666;BME280;59503;53.486;10.196;2023-09-12T06:59:35;101366.31;;;18.92;100.00
71666;BME280;59503;53.486;10.196;2023-09-12T07:02:01;101369.44;;;18.94;100.00
71666;BME280;59503;53.486;10.196;2023-09-12T07:04:26;101361.97;;;18.91;100.00
71666;BME280;59503;53.486;10.196;2023-09-12T07:06:52;101357.25;;;18.91;100.00
71666;BME280;59503;53.486;10.196;2023-09-12T07:09:18;101361.97;;;18.91;100.00
71666;BME280;59503;53.486;10.196;2023-09-12T07:11:44;101360.81;;;18.92;100.00
71666;BME280;59503;53.486;10.196;2023-09-12T07:14:10;101355.31;;;18.88;100.00
71666;BME280;59503;53.486;10.196;2023-09-12T07:16:35;101358.84;;;18.89;100.00
71666;BME280;59503;53.486;10.196;2023-09-12T07:19:00;101364.34;;;18.89;100.00
71666;BME280;59503;53.486;10.196;2023-09-12T07:21:26;101353.75;;;18.84;100.00
71666;BME280;59503;53.486;10.196;2023-09-12T07:23:52;101352.91;;;18.94;100.00
71666;BME280;59503;53.486;10.196;2023-09-12T07:26:17;101357.66;;;18.93;100.00
71666;BME280;59503;53.486;10.196;2023-09-12T07:28:43;101360.41;;;18.93;100.00
71666;BME280;59503;53.486;10.196;2023-09-12T07:31:08;101367.88;;;18.93;100.00
71666;BME280;59503;53.486;10.196;2023-09-12T07:33:34;101353.34;;;18.85;100.00
71666;BME280;59503;53.486;10.196;2023-09-12T07:35:59;101366.31;;;18.92;100.00
71666;BME280;59503;53.486;10.196;2023-09-12T07:38:25;101367.88;;;18.93;100.00
71666;BME280;59503;53.486;10.196;2023-09-12T07:40:51;101345.03;;;18.96;100.00
71666;BME280;59503;53.486;10.196;2023-09-12T07:43:17;101346.59;;;18.97;100.00
71666;BME280;59503;53.486;10.196;2023-09-12T07:45:43;101342.66;;;18.98;100.00
71666;BME280;59503;53.486;10.196;2023-09-12T07:48:09;101328.44;;;19.03;100.00
71666;BME280;59503;53.486;10.196;2023-09-12T07:50:36;101338.22;;;19.11;100.00
71666;BME280;59503;53.486;10.196;2023-09-12T07:53:07;101336.22;;;19.15;100.00
71666;BME280;59503;53.486;10.196;2023-09-12T07:55:38;101335.78;;;19.23;100.00
71666;BME280;59503;53.486;10.196;2023-09-12T07:58:16;101340.06;;;19.31;100.00
71666;BME280;59503;53.486;10.196;2023-09-12T08:00:46;101350.25;;;19.38;100.00
71666;BME280;59503;53.486;10.196;2023-09-12T08:03:12;101346.28;;;19.39;100.00
71666;BME280;59503;53.486;10.196;2023-09-12T08:05:37;101350.56;;;19.50;100.00
71666;BME280;59503;53.486;10.196;2023-09-12T08:08:03;101353.66;;;19.52;100.00
71666;BME280;59503;53.486;10.196;2023-09-12T08:10:29;101357.59;;;19.55;100.00
71666;BME280;59503;53.486;10.196;2023-09-12T08:12:54;101363.50;;;19.57;100.00
71666;BME280;59503;53.486;10.196;2023-09-12T08:15:20;101365.44;;;19.60;100.00
71666;BME280;59503;53.486;10.196;2023-09-12T08:17:45;101354.84;;;19.55;100.00
71666;BME280;59503;53.486;10.196;2023-09-12T08:20:11;101367.81;;;19.58;100.00
71666;BME280;59503;53.486;10.196;2023-09-12T08:22:37;101374.56;;;19.53;100.00
71666;BME280;59503;53.486;10.196;2023-09-12T08:25:03;101386.34;;;19.54;100.00
71666;BME280;59503;53.486;10.196;2023-09-12T08:27:29;101386.78;;;19.49;100.00
71666;BME280;59503;53.486;10.196;2023-09-12T08:29:54;101386.44;;;19.47;100.00
71666;BME280;59503;53.486;10.196;2023-09-12T08:32:20;101373.44;;;19.44;100.00
71666;BME280;59503;53.486;10.196;2023-09-12T08:34:45;101379.38;;;19.39;100.00
71666;BME280;59503;53.486;10.196;2023-09-12T08:37:11;101379.31;;;19.46;100.00
71666;BME280;59503;53.486;10.196;2023-09-12T08:39:41;101379.25;;;19.56;100.00
71666;BME280;59503;53.486;10.196;2023-09-12T08:42:12;101390.25;;;19.60;100.00
71666;BME280;59503;53.486;10.196;2023-09-12T08:44:39;101395.78;;;19.60;100.00
71666;BME280;59503;53.486;10.196;2023-09-12T08:47:07;101398.16;;;19.58;100.00
71666;BME280;59503;53.486;10.196;2023-09-12T08:49:35;101401.66;;;19.62;100.00
71666;BME280;59503;53.486;10.196;2023-09-12T08:52:00;101398.91;;;19.62;100.00
71666;BME280;59503;53.486;10.196;2023-09-12T08:54:26;101399.31;;;19.60;100.00
71666;BME280;59503;53.486;10.196;2023-09-12T08:56:51;101404.44;;;19.62;100.00
71666;BME280;59503;53.486;10.196;2023-09-12T08:59:17;101393.72;;;19.67;100.00
71666;BME280;59503;53.486;10.196;2023-09-12T09:01:43;101381.03;;;19.77;100.00
71666;BME280;59503;53.486;10.196;2023-09-12T09:04:09;101393.81;;;19.98;100.00
71666;BME280;59503;53.486;10.196;2023-09-12T09:06:35;101387.81;;;20.06;100.00
71666;BME280;59503;53.486;10.196;2023-09-12T09:09:04;101390.13;;;20.11;100.00
71666;BME280;59503;53.486;10.196;2023-09-12T09:11:30;101385.41;;;20.12;100.00
71666;BME280;59503;53.486;10.196;2023-09-12T09:13:56;101376.34;;;20.11;100.00
71666;BME280;59503;53.486;10.196;2023-09-12T09:16:22;101388.97;;;20.16;100.00
71666;BME280;59503;53.486;10.196;2023-09-12T09:18:54;101390.47;;;20.20;100.00
71666;BME280;59503;53.486;10.196;2023-09-12T09:21:22;101397.81;;;20.34;100.00
71666;BME280;59503;53.486;10.196;2023-09-12T09:23:52;101391.09;;;20.35;100.00
71666;BME280;59503;53.486;10.196;2023-09-12T09:26:18;101379.06;;;20.18;100.00
71666;BME280;59503;53.486;10.196;2023-09-12T09:28:44;101383.63;;;20.32;100.00
71666;BME280;59503;53.486;10.196;2023-09-12T09:31:11;101383.09;;;20.44;100.00
71666;BME280;59503;53.486;10.196;2023-09-12T09:33:39;101387.66;;;20.57;100.00
71666;BME280;59503;53.486;10.196;2023-09-12T09:36:06;101379.72;;;20.63;100.00
71666;BME280;59503;53.486;10.196;2023-09-12T09:38:34;101374.94;;;20.63;100.00
71666;BME280;59503;53.486;10.196;2023-09-12T09:41:02;101367.81;;;20.66;100.00
71666;BME280;59503;53.486;10.196;2023-09-12T09:43:30;101346.97;;;20.61;100.00
71666;BME280;59503;53.486;10.196;2023-09-12T09:45:57;101366.94;;;20.72;100.00
71666;BME280;59503;53.486;10.196;2023-09-12T09:48:24;101377.34;;;20.91;100.00
71666;BME280;59503;53.486;10.196;2023-09-12T09:50:53;101378.25;;;21.12;100.00
71666;BME280;59503;53.486;10.196;2023-09-12T09:53:26;101385.41;;;21.09;100.00
71666;BME280;59503;53.486;10.196;2023-09-12T09:55:51;101391.06;;;20.98;100.00
71666;BME280;59503;53.486;10.196;2023-09-12T09:58:17;101396.94;;;21.04;100.00
71666;BME280;59503;53.486;10.196;2023-09-12T10:00:42;101402.22;;;20.91;100.00
71666;BME280;59503;53.486;10.196;2023-09-12T10:03:10;101397.09;;;20.90;100.00
71666;BME280;59503;53.486;10.196;2023-09-12T10:05:37;101395.84;;;20.94;100.00
71666;BME280;59503;53.486;10.196;2023-09-12T10:08:05;101393.47;;;20.96;100.00
71666;BME280;59503;53.486;10.196;2023-09-12T10:10:32;101385.53;;;20.98;100.00
71666;BME280;59503;53.486;10.196;2023-09-12T10:13:03;101392.66;;;21.00;100.00
71666;BME280;59503;53.486;10.196;2023-09-12T10:15:29;101391.88;;;20.95;100.00
71666;BME280;59503;53.486;10.196;2023-09-12T10:18:02;101392.19;;;21.05;100.00
71666;BME280;59503;53.486;10.196;2023-09-12T10:20:41;101392.56;;;21.07;100.00
71666;BME280;59503;53.486;10.196;2023-09-12T10:23:11;101395.66;;;21.09;100.00
71666;BME280;59503;53.486;10.196;2023-09-12T10:25:40;101389.44;;;21.05;100.00
71666;BME280;59503;53.486;10.196;2023-09-12T10:28:09;101387.50;;;21.02;100.00
71666;BME280;59503;53.486;10.196;2023-09-12T10:30:35;101395.31;;;21.07;100.00
71666;BME280;59503;53.486;10.196;2023-09-12T10:33:04;101394.66;;;20.95;100.00
71666;BME280;59503;53.486;10.196;2023-09-12T10:35:31;101384.44;;;20.92;100.00
71666;BME280;59503;53.486;10.196;2023-09-12T10:38:01;101387.63;;;20.91;100.00
71666;BME280;59503;53.486;10.196;2023-09-12T10:40:31;101376.31;;;20.78;100.00
71666;BME280;59503;53.486;10.196;2023-09-12T10:43:00;101391.81;;;20.72;100.00
71666;BME280;59503;53.486;10.196;2023-09-12T10:45:28;101382.06;;;20.64;100.00
71666;BME280;59503;53.486;10.196;2023-09-12T10:47:54;101386.84;;;20.60;100.00
71666;BME280;59503;53.486;10.196;2023-09-12T10:50:20;101383.69;;;20.58;100.00
71666;BME280;59503;53.486;10.196;2023-09-12T10:52:45;101389.63;;;20.57;100.00
71666;BME280;59503;53.486;10.196;2023-09-12T10:55:16;101390.88;;;20.52;100.00
71666;BME280;59503;53.486;10.196;2023-09-12T10:58:09;101398.88;;;20.43;100.00
71666;BME280;59503;53.486;10.196;2023-09-12T11:00:36;101398.97;;;20.36;100.00
71666;BME280;59503;53.486;10.196;2023-09-12T11:05:55;101399.03;;;20.33;100.00
71666;BME280;59503;53.486;10.196;2023-09-12T11:08:21;101401.41;;;20.31;100.00
71666;BME280;59503;53.486;10.196;2023-09-12T11:11:17;101402.28;;;20.24;100.00
71666;BME280;59503;53.486;10.196;2023-09-12T11:13:44;101392.47;;;20.16;100.00
71666;BME280;59503;53.486;10.196;2023-09-12T11:16:15;101404.66;;;20.22;100.00
71666;BME280;59503;53.486;10.196;2023-09-12T11:21:36;101397.63;;;20.18;100.00
71666;BME280;59503;53.486;10.196;2023-09-12T11:24:02;101400.31;;;20.21;100.00
71666;BME280;59503;53.486;10.196;2023-09-12T11:26:29;101414.50;;;20.23;100.00
71666;BME280;59503;53.486;10.196;2023-09-12T11:28:55;101392.09;;;20.14;100.00
71666;BME280;59503;53.486;10.196;2023-09-12T11:31:25;101396.03;;;20.13;100.00
71666;BME280;59503;53.486;10.196;2023-09-12T11:33:52;101393.69;;;20.15;100.00
71666;BME280;59503;53.486;10.196;2023-09-12T11:36:19;101393.72;;;20.08;100.00
71666;BME280;59503;53.486;10.196;2023-09-12T11:38:49;101395.38;;;20.02;100.00
71666;BME280;59503;53.486;10.196;2023-09-12T11:41:40;101392.38;;;19.86;100.00
71666;BME280;59503;53.486;10.196;2023-09-12T11:44:06;101396.78;;;19.80;100.00
71666;BME280;59503;53.486;10.196;2023-09-12T11:46:32;101412.53;;;19.79;100.00
71666;BME280;59503;53.486;10.196;2023-09-12T11:49:01;101414.16;;;19.77;100.00
71666;BME280;59503;53.486;10.196;2023-09-12T11:51:26;101413.78;;;19.75;100.00
71666;BME280;59503;53.486;10.196;2023-09-12T11:53:52;101421.59;;;19.80;100.00
71666;BME280;59503;53.486;10.196;2023-09-12T11:56:18;101414.47;;;19.83;100.00
71666;BME280;59503;53.486;10.196;2023-09-12T11:58:44;101410.94;;;19.82;100.00
71666;BME280;59503;53.486;10.196;2023-09-12T12:01:12;101404.66;;;19.78;100.00
71666;BME280;59503;53.486;10.196;2023-09-12T12:03:37;101408.63;;;19.77;100.00
71666;BME280;59503;53.486;10.196;2023-09-12T12:06:03;101398.44;;;19.70;100.00
71666;BME280;59503;53.486;10.196;2023-09-12T12:08:30;101412.59;;;19.72;100.00
71666;BME280;59503;53.486;10.196;2023-09-12T12:10:56;101402.72;;;19.75;100.00
71666;BME280;59503;53.486;10.196;2023-09-12T12:13:23;101405.94;;;19.70;100.00
71666;BME280;59503;53.486;10.196;2023-09-12T12:15:49;101412.22;;;19.74;100.00
71666;BME280;59503;53.486;10.196;2023-09-12T12:18:15;101401.97;;;19.71;100.00
71666;BME280;59503;53.486;10.196;2023-09-12T12:20:40;101394.44;;;19.75;100.00
71666;BME280;59503;53.486;10.196;2023-09-12T12:23:06;101383.84;;;19.70;100.00
71666;BME280;59503;53.486;10.196;2023-09-12T12:25:33;101371.25;;;19.69;100.00
71666;BME280;59503;53.486;10.196;2023-09-12T12:28:00;101362.97;;;19.69;100.00
71666;BME280;59503;53.486;10.196;2023-09-12T12:30:25;101356.28;;;19.70;100.00
71666;BME280;59503;53.486;10.196;2023-09-12T12:32:51;101360.94;;;19.76;100.00
71666;BME280;59503;53.486;10.196;2023-09-12T12:35:21;101353.00;;;19.82;100.00
71666;BME280;59503;53.486;10.196;2023-09-12T12:37:50;101341.06;;;19.92;100.00
71666;BME280;59503;53.486;10.196;2023-09-12T12:40:17;101338.69;;;19.94;100.00